Time;durP1;ratioP1;P1;durP2;ratioP2;P2;SDS_P1;SDS_P2;PMS_P1;PMS_P2;Temp;Humidity;BMP_temperature;BMP_pressure;BME280_temperature;BME280_humidity;BME280_pressure;Samples;Min_cycle;Max_cycle;Signal;HPM_P1;HPM_P2
2022/06/01 00:01:30;;;;;;;;;;;;;;;;;;143737;975;46027;-58
2022/06/01 00:03:56;;;;;;;;;;;;;;;;;;143746;979;46012;-57
2022/06/01 00:06:22;;;;;;;;;;;;;;;;;;143742;979;46020;-58
2022/06/01 00:08:49;;;;;;;;;;;;;;;;;;143743;976;46012;-58
2022/06/01 00:11:16;;;;;;;;;;;;;;;;;;143742;981;46019;-58
2022/06/01 00:13:42;;;;;;;;;;;;;;;;;;143746;979;46023;-59
2022/06/01 00:16:09;;;;;;;;;;;;;;;;;;143741;982;47018;-58
2022/06/01 00:18:36;;;;;;;;;;;;;;;;;;143737;976;46023;-58
2022/06/01 00:21:02;;;;;;;;;;;;;;;;;;143740;982;46019;-58
2022/06/01 00:23:28;;;;;;;;;;;;;;;;;;143745;961;46012;-58
2022/06/01 00:25:54;;;;;;;;;;;;;;;;;;143737;982;46020;-58
2022/06/01 00:28:20;;;;;;;;;;;;;;;;;;143740;975;46023;-58
2022/06/01 00:30:46;;;;;;;;;;;;;;;;;;143743;982;46018;-58
2022/06/01 00:33:13;;;;;;;;;;;;;;;;;;143744;979;46013;-58
2022/06/01 00:35:39;;;;;;;;;;;;;;;;;;143742;960;46046;-58
2022/06/01 00:38:05;;;;;;;;;;;;;;;;;;143744;976;46012;-58
2022/06/01 00:40:32;;;;;;;;;;;;;;;;;;143742;981;46019;-58
2022/06/01 00:43:00;;;;;;;;;;;;;;;;;;143746;977;46023;-58
2022/06/01 00:45:28;;;;;;;;;;;;;;;;;;143743;975;46020;-58
2022/06/01 00:47:54;;;;;;;;;;;;;;;;;;143739;976;47022;-58
2022/06/01 00:50:21;;;;;;;;;;;;;;;;;;143738;983;46018;-58
2022/06/01 00:52:50;;;;;;;;;;;;;;;;;;143745;980;46012;-59
2022/06/01 00:55:21;;;;;;;;;;;;;;;;;;143742;978;47019;-59
2022/06/01 00:57:51;;;;;;;;;;;;;;;;;;143743;975;46012;-58
2022/06/01 01:00:27;;;;;;;;;;;;;;;;;;143743;982;46018;-58
2022/06/01 01:02:55;;;;;;;;;;;;;;;;;;143745;979;46023;-58
2022/06/01 01:05:22;;;;;;;;;;;;;;;;;;143742;981;46021;-58
2022/06/01 01:07:49;;;;;;;;;;;;;;;;;;143742;976;46022;-58
2022/06/01 01:10:16;;;;;;;;;;;;;;;;;;143743;983;46019;-58
2022/06/01 01:12:57;;;;;;;;;;;;;;;;;;143745;979;46012;-58
2022/06/01 01:15:28;;;;;;;;;;;;;;;;;;143736;982;47020;-58
2022/06/01 01:17:54;;;;;;;;;;;;;;;;;;143743;970;46023;-58
2022/06/01 01:20:21;;;;;;;;;;;;;;;;;;143742;977;46018;-58
2022/06/01 01:23:09;;;;;;;;;;;;;;;;;;143745;979;46022;-58
2022/06/01 01:25:38;;;;;;;;;;;;;;;;;;143743;978;46020;-58
2022/06/01 01:28:05;;;;;;;;;;;;;;;;;;143742;974;46022;-58
2022/06/01 01:30:44;;;;;;;;;;;;;;;;;;143741;982;46018;-58
2022/06/01 01:33:13;;;;;;;;;;;;;;;;;;143745;979;46012;-58
2022/06/01 01:35:40;;;;;;;;;;;;;;;;;;143742;982;46020;-58
2022/06/01 01:38:14;;;;;;;;;;;;;;;;;;143742;969;46022;-58
2022/06/01 01:40:40;;;;;;;;;;;;;;;;;;143736;978;46019;-58
2022/06/01 01:43:07;;;;;;;;;;;;;;;;;;143743;976;46022;-58
2022/06/01 01:45:35;;;;;;;;;;;;;;;;;;143743;982;46018;-58
2022/06/01 01:48:01;;;;;;;;;;;;;;;;;;143737;976;46023;-58
2022/06/01 01:50:27;;;;;;;;;;;;;;;;;;143742;961;46018;-58
2022/06/01 01:52:53;;;;;;;;;;;;;;;;;;143746;977;46022;-58
2022/06/01 01:55:39;;;;;;;;;;;;;;;;;;143743;968;46020;-58
2022/06/01 01:58:17;;;;;;;;;;;;;;;;;;143741;976;46022;-57
2022/06/01 02:00:45;;;;;;;;;;;;;;;;;;143744;981;46018;-58
2022/06/01 02:03:34;;;;;;;;;;;;;;;;;;143747;979;46012;-58
2022/06/01 02:06:14;;;;;;;;;;;;;;;;;;143737;982;46020;-57
2022/06/01 02:08:48;;;;;;;;;;;;;;;;;;143741;976;46022;-58
2022/06/01 02:14:20;;;;;;;;;;;;;;;;;;143744;980;46022;-58
2022/06/01 02:16:49;;;;;;;;;;;;;;;;;;143746;962;46019;-58
2022/06/01 02:19:20;;;;;;;;;;;;;;;;;;143741;975;46022;-57
2022/06/01 02:21:47;;;;;;;;;;;;;;;;;;143737;969;46018;-58
2022/06/01 02:24:13;;;;;;;;;;;;;;;;;;143747;977;46013;-58
2022/06/01 02:26:39;;;;;;;;;;;;;;;;;;143742;981;46018;-58
2022/06/01 02:29:11;;;;;;;;;;;;;;;;;;143741;971;46022;-57
2022/06/01 02:31:39;;;;;;;;;;;;;;;;;;143739;965;46012;-58
2022/06/01 02:34:07;;;;;;;;;;;;;;;;;;143745;981;46014;-58
2022/06/01 02:36:34;;;;;;;;;;;;;;;;;;143744;982;46018;-58
2022/06/01 02:39:02;;;;;;;;;;;;;;;;;;143743;974;46012;-57
2022/06/01 02:44:12;;;;;;;;;;;;;;;;;;143745;980;46022;-58
2022/06/01 02:46:38;;;;;;;;;;;;;;;;;;143744;971;46020;-58
2022/06/01 02:49:04;;;;;;;;;;;;;;;;;;143741;975;46012;-57
2022/06/01 02:51:31;;;;;;;;;;;;;;;;;;143742;984;46018;-58
2022/06/01 02:53:57;;;;;;;;;;;;;;;;;;143745;979;46022;-57
2022/06/01 02:56:24;;;;;;;;;;;;;;;;;;143737;982;46021;-57
2022/06/01 02:58:51;;;;;;;;;;;;;;;;;;143743;976;46012;-58
2022/06/01 03:01:17;;;;;;;;;;;;;;;;;;143741;979;46019;-57
2022/06/01 03:03:43;;;;;;;;;;;;;;;;;;143744;969;46023;-57
2022/06/01 03:06:10;;;;;;;;;;;;;;;;;;143743;984;46020;-58
2022/06/01 03:08:36;;;;;;;;;;;;;;;;;;143743;974;46022;-58
2022/06/01 03:11:03;;;;;;;;;;;;;;;;;;143742;979;46018;-57
2022/06/01 03:13:30;;;;;;;;;;;;;;;;;;143744;980;46021;-57
2022/06/01 03:15:56;;;;;;;;;;;;;;;;;;143743;964;46038;-57
2022/06/01 03:18:22;;;;;;;;;;;;;;;;;;143743;977;46021;-57
2022/06/01 03:20:48;;;;;;;;;;;;;;;;;;143738;976;46020;-57
2022/06/01 03:23:15;;;;;;;;;;;;;;;;;;143745;980;46013;-57
2022/06/01 03:25:41;;;;;;;;;;;;;;;;;;143743;981;47020;-57
2022/06/01 03:28:07;;;;;;;;;;;;;;;;;;143743;978;46020;-58
2022/06/01 03:30:34;;;;;;;;;;;;;;;;;;143742;976;46021;-58
2022/06/01 03:33:00;;;;;;;;;;;;;;;;;;143741;981;46021;-58
2022/06/01 03:35:27;;;;;;;;;;;;;;;;;;143743;982;46022;-57
2022/06/01 03:37:54;;;;;;;;;;;;;;;;;;143742;978;46012;-58
2022/06/01 03:40:21;;;;;;;;;;;;;;;;;;143742;976;46021;-57
2022/06/01 03:42:48;;;;;;;;;;;;;;;;;;143744;980;46012;-57
2022/06/01 03:47:58;;;;;;;;;;;;;;;;;;143743;979;46012;-57
2022/06/01 03:50:25;;;;;;;;;;;;;;;;;;143742;982;46020;-57
2022/06/01 03:52:52;;;;;;;;;;;;;;;;;;143744;982;46020;-57
2022/06/01 03:55:19;;;;;;;;;;;;;;;;;;143742;981;47020;-57
2022/06/01 03:57:45;;;;;;;;;;;;;;;;;;143743;971;46020;-57
2022/06/01 04:00:14;;;;;;;;;;;;;;;;;;143743;981;46021;-57
2022/06/01 04:02:40;;;;;;;;;;;;;;;;;;143744;970;46013;-57
2022/06/01 04:05:07;;;;;;;;;;;;;;;;;;143742;970;46022;-57
2022/06/01 04:07:34;;;;;;;;;;;;;;;;;;143740;978;46931;-57
2022/06/01 04:10:00;;;;;;;;;;;;;;;;;;143736;976;46021;-57
2022/06/01 04:12:26;;;;;;;;;;;;;;;;;;143742;982;46012;-57
2022/06/01 04:14:53;;;;;;;;;;;;;;;;;;143743;980;46022;-58
2022/06/01 04:17:19;;;;;;;;;;;;;;;;;;143742;977;46022;-57
2022/06/01 04:19:45;;;;;;;;;;;;;;;;;;143744;982;46020;-57
2022/06/01 04:22:12;;;;;;;;;;;;;;;;;;143743;982;46020;-58
2022/06/01 04:24:39;;;;;;;;;;;;;;;;;;143745;980;46021;-57
2022/06/01 04:27:05;;;;;;;;;;;;;;;;;;143740;977;46020;-57
2022/06/01 04:29:32;;;;;;;;;;;;;;;;;;143744;965;46020;-58
2022/06/01 04:32:06;;;;;;;;;;;;;;;;;;143741;981;46021;-57
2022/06/01 04:34:32;;;;;;;;;;;;;;;;;;143737;978;46022;-58
2022/06/01 04:36:58;;;;;;;;;;;;;;;;;;143743;978;46020;-57
2022/06/01 04:39:24;;;;;;;;;;;;;;;;;;143744;955;46020;-58
2022/06/01 04:41:51;;;;;;;;;;;;;;;;;;143743;982;46020;-57
2022/06/01 04:44:17;;;;;;;;;;;;;;;;;;143744;953;46020;-58
2022/06/01 04:46:44;;;;;;;;;;;;;;;;;;143741;978;46021;-58
2022/06/01 04:49:10;;;;;;;;;;;;;;;;;;143744;957;46020;-58
2022/06/01 04:51:37;;;;;;;;;;;;;;;;;;143743;975;46020;-58
2022/06/01 04:54:03;;;;;;;;;;;;;;;;;;143741;979;47023;-58
2022/06/01 04:56:30;;;;;;;;;;;;;;;;;;143741;977;46931;-58
2022/06/01 04:58:56;;;;;;;;;;;;;;;;;;143737;982;46020;-59
2022/06/01 05:01:23;;;;;;;;;;;;;;;;;;143744;981;46012;-58
2022/06/01 05:03:49;;;;;;;;;;;;;;;;;;143746;982;46020;-58
2022/06/01 05:06:15;;;;;;;;;;;;;;;;;;143742;978;46020;-58
2022/06/01 05:08:41;;;;;;;;;;;;;;;;;;143744;981;46020;-58
2022/06/01 05:11:08;;;;;;;;;;;;;;;;;;143743;982;46012;-59
2022/06/01 05:13:34;;;;;;;;;;;;;;;;;;143743;982;46022;-58
2022/06/01 05:16:01;;;;;;;;;;;;;;;;;;143741;978;46021;-58
2022/06/01 05:18:28;;;;;;;;;;;;;;;;;;143741;979;46020;-59
2022/06/01 05:20:54;;;;;;;;;;;;;;;;;;143741;968;46020;-59
2022/06/01 05:23:21;;;;;;;;;;;;;;;;;;143737;981;46022;-58
2022/06/01 05:25:49;;;;;;;;;;;;;;;;;;143744;977;46010;-58
2022/06/01 05:28:20;;;;;;;;;;;;;;;;;;143744;980;46020;-58
2022/06/01 05:30:46;;;;;;;;;;;;;;;;;;143745;979;46012;-59
2022/06/01 05:33:13;;;;;;;;;;;;;;;;;;143743;981;46012;-60
2022/06/01 05:35:39;;;;;;;;;;;;;;;;;;143742;975;46027;-60
2022/06/01 05:38:06;;;;;;;;;;;;;;;;;;143742;974;46021;-59
2022/06/01 05:40:32;;;;;;;;;;;;;;;;;;143746;973;46010;-59
2022/06/01 05:42:58;;;;;;;;;;;;;;;;;;143743;969;46022;-59
2022/06/01 05:45:25;;;;;;;;;;;;;;;;;;143740;977;46021;-59
2022/06/01 05:47:51;;;;;;;;;;;;;;;;;;143735;955;46021;-59
2022/06/01 05:50:17;;;;;;;;;;;;;;;;;;143745;982;46012;-60
2022/06/01 05:52:43;;;;;;;;;;;;;;;;;;143741;975;46022;-59
2022/06/01 05:55:11;;;;;;;;;;;;;;;;;;143741;977;46010;-59
2022/06/01 05:57:37;;;;;;;;;;;;;;;;;;143740;973;46020;-59
2022/06/01 06:00:09;;;;;;;;;;;;;;;;;;143746;981;46007;-59
2022/06/01 06:02:35;;;;;;;;;;;;;;;;;;143745;967;46035;-59
2022/06/01 06:05:02;;;;;;;;;;;;;;;;;;143743;976;46022;-59
2022/06/01 06:07:29;;;;;;;;;;;;;;;;;;143743;983;46019;-59
2022/06/01 06:09:55;;;;;;;;;;;;;;;;;;143745;976;46023;-59
2022/06/01 06:12:21;;;;;;;;;;;;;;;;;;143739;982;46018;-59
2022/06/01 06:14:49;;;;;;;;;;;;;;;;;;143743;976;46010;-59
2022/06/01 06:17:15;;;;;;;;;;;;;;;;;;143745;983;46010;-59
2022/06/01 06:19:41;;;;;;;;;;;;;;;;;;143745;980;46012;-58
2022/06/01 06:22:08;;;;;;;;;;;;;;;;;;143742;980;46020;-59
2022/06/01 06:24:34;;;;;;;;;;;;;;;;;;143741;975;46012;-59
2022/06/01 06:27:00;;;;;;;;;;;;;;;;;;143742;982;46018;-58
2022/06/01 06:29:26;;;;;;;;;;;;;;;;;;143741;973;46012;-59
2022/06/01 06:31:52;;;;;;;;;;;;;;;;;;143745;982;46018;-59
2022/06/01 06:34:18;;;;;;;;;;;;;;;;;;143743;976;46022;-59
2022/06/01 06:36:45;;;;;;;;;;;;;;;;;;143738;983;46019;-59
2022/06/01 06:39:11;;;;;;;;;;;;;;;;;;143744;979;46023;-59
2022/06/01 06:41:38;;;;;;;;;;;;;;;;;;143742;983;46020;-59
2022/06/01 06:44:04;;;;;;;;;;;;;;;;;;143742;976;46022;-59
2022/06/01 06:46:30;;;;;;;;;;;;;;;;;;143744;983;46018;-60
2022/06/01 06:48:56;;;;;;;;;;;;;;;;;;143744;980;46012;-59
2022/06/01 06:51:24;;;;;;;;;;;;;;;;;;143744;983;46019;-59
2022/06/01 06:53:50;;;;;;;;;;;;;;;;;;143741;975;46023;-59
2022/06/01 06:56:18;;;;;;;;;;;;;;;;;;143742;984;46018;-59
2022/06/01 06:58:44;;;;;;;;;;;;;;;;;;143744;974;46022;-59
2022/06/01 07:01:10;;;;;;;;;;;;;;;;;;143738;981;46018;-60
2022/06/01 07:03:36;;;;;;;;;;;;;;;;;;143744;976;46010;-59
2022/06/01 07:06:17;;;;;;;;;;;;;;;;;;143743;984;46018;-59
2022/06/01 07:08:48;;;;;;;;;;;;;;;;;;143746;979;46012;-59
2022/06/01 07:11:16;;;;;;;;;;;;;;;;;;143742;982;46020;-59
2022/06/01 07:13:42;;;;;;;;;;;;;;;;;;143741;976;46022;-59
2022/06/01 07:16:18;;;;;;;;;;;;;;;;;;143742;982;46018;-59
2022/06/01 07:18:45;;;;;;;;;;;;;;;;;;143744;975;46012;-59
2022/06/01 07:21:14;;;;;;;;;;;;;;;;;;143743;970;46020;-60
2022/06/01 07:23:41;;;;;;;;;;;;;;;;;;143743;975;46010;-59
2022/06/01 07:26:08;;;;;;;;;;;;;;;;;;143739;982;46018;-59
2022/06/01 07:28:35;;;;;;;;;;;;;;;;;;143745;972;46013;-59
2022/06/01 07:31:01;;;;;;;;;;;;;;;;;;143745;977;46018;-59
2022/06/01 07:33:28;;;;;;;;;;;;;;;;;;143741;964;46038;-58
2022/06/01 07:35:59;;;;;;;;;;;;;;;;;;143741;982;46021;-59
2022/06/01 07:43:56;;;;;;;;;;;;;;;;;;143740;980;46929;-59
2022/06/01 07:46:22;;;;;;;;;;;;;;;;;;143744;954;46020;-58
2022/06/01 07:48:49;;;;;;;;;;;;;;;;;;143743;969;46012;-60
2022/06/01 07:51:15;;;;;;;;;;;;;;;;;;143736;981;46925;-59
2022/06/01 07:53:42;;;;;;;;;;;;;;;;;;143741;977;46021;-59
2022/06/01 07:56:09;;;;;;;;;;;;;;;;;;143742;974;46020;-60
2022/06/01 07:58:35;;;;;;;;;;;;;;;;;;143745;981;46020;-59
2022/06/01 08:01:02;;;;;;;;;;;;;;;;;;143743;981;46023;-60
2022/06/01 08:03:28;;;;;;;;;;;;;;;;;;143742;976;46020;-60
2022/06/01 08:05:54;;;;;;;;;;;;;;;;;;143742;978;46021;-59
2022/06/01 08:08:20;;;;;;;;;;;;;;;;;;143743;981;46021;-59
2022/06/01 08:10:47;;;;;;;;;;;;;;;;;;143744;982;46020;-60
2022/06/01 08:13:14;;;;;;;;;;;;;;;;;;143743;975;46020;-59
2022/06/01 08:15:42;;;;;;;;;;;;;;;;;;143738;981;46020;-60
2022/06/01 08:18:09;;;;;;;;;;;;;;;;;;143744;978;46012;-60
2022/06/01 08:20:36;;;;;;;;;;;;;;;;;;143745;979;46021;-59
2022/06/01 08:23:02;;;;;;;;;;;;;;;;;;143740;971;46021;-59
2022/06/01 08:25:28;;;;;;;;;;;;;;;;;;143742;982;46020;-60
2022/06/01 08:27:55;;;;;;;;;;;;;;;;;;143744;974;47020;-59
2022/06/01 08:30:23;;;;;;;;;;;;;;;;;;143743;981;47021;-60
2022/06/01 08:32:49;;;;;;;;;;;;;;;;;;143740;970;46020;-60
2022/06/01 08:35:18;;;;;;;;;;;;;;;;;;143740;981;46021;-59
2022/06/01 08:37:46;;;;;;;;;;;;;;;;;;143745;981;46013;-60
2022/06/01 08:40:13;;;;;;;;;;;;;;;;;;143738;981;46020;-59
2022/06/01 08:42:43;;;;;;;;;;;;;;;;;;143743;973;46010;-59
2022/06/01 08:45:09;;;;;;;;;;;;;;;;;;143736;981;47010;-59
2022/06/01 08:47:39;;;;;;;;;;;;;;;;;;143747;974;46010;-60
2022/06/01 08:50:14;;;;;;;;;;;;;;;;;;143744;982;46022;-60
2022/06/01 08:52:40;;;;;;;;;;;;;;;;;;143742;977;46021;-59
2022/06/01 08:55:06;;;;;;;;;;;;;;;;;;143742;982;46020;-59
2022/06/01 08:57:55;;;;;;;;;;;;;;;;;;143744;975;46012;-59
2022/06/01 09:00:21;;;;;;;;;;;;;;;;;;143746;965;46020;-59
2022/06/01 09:03:07;;;;;;;;;;;;;;;;;;143740;978;46020;-59
2022/06/01 09:05:48;;;;;;;;;;;;;;;;;;143738;981;46021;-60
2022/06/01 09:08:34;;;;;;;;;;;;;;;;;;143744;975;46012;-59
2022/06/01 09:11:06;;;;;;;;;;;;;;;;;;143742;965;46043;-59
2022/06/01 09:13:54;;;;;;;;;;;;;;;;;;143741;978;46020;-60
2022/06/01 09:16:22;;;;;;;;;;;;;;;;;;143743;953;46020;-60
2022/06/01 09:18:50;;;;;;;;;;;;;;;;;;143744;974;46020;-60
2022/06/01 09:24:24;;;;;;;;;;;;;;;;;;143742;980;46020;-61
2022/06/01 09:26:51;;;;;;;;;;;;;;;;;;143742;982;46020;-60
2022/06/01 09:29:21;;;;;;;;;;;;;;;;;;143745;980;46012;-60
2022/06/01 09:31:49;;;;;;;;;;;;;;;;;;143738;982;46020;-60
2022/06/01 09:34:20;;;;;;;;;;;;;;;;;;143743;969;46020;-59
2022/06/01 09:36:54;;;;;;;;;;;;;;;;;;143741;980;46021;-59
2022/06/01 09:39:20;;;;;;;;;;;;;;;;;;143743;963;46012;-60
2022/06/01 09:41:47;;;;;;;;;;;;;;;;;;143742;981;46022;-59
2022/06/01 09:44:18;;;;;;;;;;;;;;;;;;143743;978;46021;-60
2022/06/01 09:47:03;;;;;;;;;;;;;;;;;;143743;981;46020;-60
2022/06/01 09:49:36;;;;;;;;;;;;;;;;;;143743;970;46020;-60
2022/06/01 09:52:21;;;;;;;;;;;;;;;;;;143744;952;47020;-60
2022/06/01 09:54:52;;;;;;;;;;;;;;;;;;143743;978;46010;-60
2022/06/01 09:57:28;;;;;;;;;;;;;;;;;;143738;981;46021;-60
2022/06/01 10:08:30;;;;;;;;;;;;;;;;;;143742;981;46023;-59
2022/06/01 10:11:06;;;;;;;;;;;;;;;;;;143744;973;46020;-60
2022/06/01 10:13:38;;;;;;;;;;;;;;;;;;143743;981;46022;-61
2022/06/01 10:16:25;;;;;;;;;;;;;;;;;;143740;974;46020;-61
2022/06/01 10:18:53;;;;;;;;;;;;;;;;;;143743;964;46020;-60
2022/06/01 10:21:23;;;;;;;;;;;;;;;;;;143743;981;46020;-61
2022/06/01 10:23:52;;;;;;;;;;;;;;;;;;143736;982;46022;-60
2022/06/01 10:26:23;;;;;;;;;;;;;;;;;;143741;978;46020;-60
2022/06/01 10:29:15;;;;;;;;;;;;;;;;;;143742;960;46021;-61
2022/06/01 10:31:44;;;;;;;;;;;;;;;;;;143743;980;46020;-60
2022/06/01 10:34:21;;;;;;;;;;;;;;;;;;143742;979;46027;-60
2022/06/01 10:36:56;;;;;;;;;;;;;;;;;;143742;974;46021;-60
2022/06/01 10:39:25;;;;;;;;;;;;;;;;;;143743;982;46020;-60
2022/06/01 10:42:11;;;;;;;;;;;;;;;;;;143744;981;46013;-59
2022/06/01 10:44:44;;;;;;;;;;;;;;;;;;143742;981;46023;-59
2022/06/01 10:47:25;;;;;;;;;;;;;;;;;;143740;978;46020;-60
2022/06/01 10:50:09;;;;;;;;;;;;;;;;;;143736;967;46021;-59
2022/06/01 10:52:41;;;;;;;;;;;;;;;;;;143743;981;46012;-59
2022/06/01 10:55:21;;;;;;;;;;;;;;;;;;143739;982;47020;-59
2022/06/01 10:57:48;;;;;;;;;;;;;;;;;;143743;978;46020;-60
2022/06/01 11:00:20;;;;;;;;;;;;;;;;;;143743;981;46021;-60
2022/06/01 11:03:08;;;;;;;;;;;;;;;;;;143745;982;46020;-59
2022/06/01 11:05:44;;;;;;;;;;;;;;;;;;143741;981;46024;-59
2022/06/01 11:08:20;;;;;;;;;;;;;;;;;;143742;977;46020;-59
2022/06/01 11:11:09;;;;;;;;;;;;;;;;;;143741;982;46020;-59
2022/06/01 11:13:47;;;;;;;;;;;;;;;;;;143748;981;46014;-59
2022/06/01 11:16:38;;;;;;;;;;;;;;;;;;143752;982;47020;-59
2022/06/01 11:19:13;;;;;;;;;;;;;;;;;;143750;972;46028;-58
2022/06/01 11:22:01;;;;;;;;;;;;;;;;;;143751;978;46020;-58
2022/06/01 11:24:45;;;;;;;;;;;;;;;;;;143755;980;46010;-58
2022/06/01 11:27:49;;;;;;;;;;;;;;;;;;143753;981;46021;-59
2022/06/01 11:30:24;;;;;;;;;;;;;;;;;;143751;977;46020;-58
2022/06/01 11:32:59;;;;;;;;;;;;;;;;;;143751;982;46020;-58
2022/06/01 11:35:44;;;;;;;;;;;;;;;;;;143754;970;46020;-58
2022/06/01 11:38:32;;;;;;;;;;;;;;;;;;143752;981;46023;-58
2022/06/01 11:41:21;;;;;;;;;;;;;;;;;;143750;978;46020;-58
2022/06/01 11:44:08;;;;;;;;;;;;;;;;;;143751;981;46021;-59
2022/06/01 11:46:50;;;;;;;;;;;;;;;;;;143751;979;46010;-58
2022/06/01 11:49:39;;;;;;;;;;;;;;;;;;143753;979;46021;-58
2022/06/01 11:52:36;;;;;;;;;;;;;;;;;;143750;977;46020;-58
2022/06/01 11:55:10;;;;;;;;;;;;;;;;;;143749;973;46022;-58
2022/06/01 11:57:50;;;;;;;;;;;;;;;;;;143754;981;46011;-58
2022/06/01 12:00:21;;;;;;;;;;;;;;;;;;143753;969;46020;-59
2022/06/01 12:02:50;;;;;;;;;;;;;;;;;;143750;978;46020;-58
2022/06/01 12:05:39;;;;;;;;;;;;;;;;;;143753;981;46021;-59
2022/06/01 12:08:22;;;;;;;;;;;;;;;;;;143756;982;46010;-59
2022/06/01 12:10:52;;;;;;;;;;;;;;;;;;143752;969;46022;-58
2022/06/01 12:13:26;;;;;;;;;;;;;;;;;;143750;967;46021;-59
2022/06/01 12:16:23;;;;;;;;;;;;;;;;;;143750;981;47010;-59
2022/06/01 12:19:12;;;;;;;;;;;;;;;;;;143754;982;46020;-59
2022/06/01 12:22:06;;;;;;;;;;;;;;;;;;143754;974;46020;-58
2022/06/01 12:30:09;;;;;;;;;;;;;;;;;;143753;981;46020;-59
2022/06/01 12:32:53;;;;;;;;;;;;;;;;;;143749;982;47022;-58
2022/06/01 12:35:20;;;;;;;;;;;;;;;;;;143751;972;46010;-58
2022/06/01 12:37:53;;;;;;;;;;;;;;;;;;143748;976;46020;-58
2022/06/01 12:40:21;;;;;;;;;;;;;;;;;;143753;973;46010;-58
2022/06/01 12:42:55;;;;;;;;;;;;;;;;;;143748;981;47022;-58
2022/06/01 12:45:26;;;;;;;;;;;;;;;;;;143751;975;46020;-59
2022/06/01 12:47:55;;;;;;;;;;;;;;;;;;143749;981;46020;-59
2022/06/01 12:50:22;;;;;;;;;;;;;;;;;;143754;981;46011;-58
2022/06/01 12:53:07;;;;;;;;;;;;;;;;;;143754;953;46020;-59
2022/06/01 12:55:33;;;;;;;;;;;;;;;;;;143750;973;46020;-58
2022/06/01 12:57:59;;;;;;;;;;;;;;;;;;143752;981;46021;-58
2022/06/01 13:00:30;;;;;;;;;;;;;;;;;;143754;982;46020;-58
2022/06/01 13:02:57;;;;;;;;;;;;;;;;;;143752;968;47034;-58
2022/06/01 13:05:38;;;;;;;;;;;;;;;;;;143750;976;46023;-58
2022/06/01 13:08:08;;;;;;;;;;;;;;;;;;143752;981;46018;-58
2022/06/01 13:10:35;;;;;;;;;;;;;;;;;;143755;980;46010;-58
2022/06/01 13:13:09;;;;;;;;;;;;;;;;;;143753;980;46020;-58
2022/06/01 13:15:36;;;;;;;;;;;;;;;;;;143751;975;46010;-58
2022/06/01 13:18:04;;;;;;;;;;;;;;;;;;143754;959;45921;-58
2022/06/01 13:20:41;;;;;;;;;;;;;;;;;;143755;973;46010;-58
2022/06/01 13:23:16;;;;;;;;;;;;;;;;;;143754;982;46018;-58
2022/06/01 13:25:43;;;;;;;;;;;;;;;;;;143751;973;46022;-58
2022/06/01 13:28:10;;;;;;;;;;;;;;;;;;143749;975;46921;-58
2022/06/01 13:30:37;;;;;;;;;;;;;;;;;;143755;970;46022;-58
2022/06/01 13:33:15;;;;;;;;;;;;;;;;;;143751;970;47018;-58
2022/06/01 13:35:53;;;;;;;;;;;;;;;;;;143751;976;46010;-58
2022/06/01 13:38:21;;;;;;;;;;;;;;;;;;143753;979;46018;-58
2022/06/01 13:40:55;;;;;;;;;;;;;;;;;;143752;964;46039;-58
2022/06/01 13:43:22;;;;;;;;;;;;;;;;;;143751;956;47020;-57
2022/06/01 13:45:53;;;;;;;;;;;;;;;;;;143748;975;46020;-58
2022/06/01 13:48:24;;;;;;;;;;;;;;;;;;143752;981;46021;-57
2022/06/01 13:50:54;;;;;;;;;;;;;;;;;;143752;976;46010;-58
2022/06/01 13:53:32;;;;;;;;;;;;;;;;;;143752;982;46020;-58
2022/06/01 13:56:22;;;;;;;;;;;;;;;;;;143752;978;46020;-58
2022/06/01 13:58:53;;;;;;;;;;;;;;;;;;143752;981;46020;-58
2022/06/01 14:01:39;;;;;;;;;;;;;;;;;;143752;982;46010;-58
2022/06/01 14:04:31;;;;;;;;;;;;;;;;;;143752;981;46024;-57
2022/06/01 14:07:07;;;;;;;;;;;;;;;;;;143750;977;46021;-58
2022/06/01 14:09:35;;;;;;;;;;;;;;;;;;143751;982;46020;-58
2022/06/01 14:12:02;;;;;;;;;;;;;;;;;;143755;981;46010;-57
2022/06/01 14:14:32;;;;;;;;;;;;;;;;;;143752;982;47010;-58
2022/06/01 14:16:59;;;;;;;;;;;;;;;;;;143750;965;46020;-58
2022/06/01 14:19:25;;;;;;;;;;;;;;;;;;143749;961;46023;-58
2022/06/01 14:21:52;;;;;;;;;;;;;;;;;;143753;981;46020;-58
2022/06/01 14:24:19;;;;;;;;;;;;;;;;;;143753;982;46020;-58
2022/06/01 14:29:29;;;;;;;;;;;;;;;;;;143751;981;46022;-58
2022/06/01 14:31:58;;;;;;;;;;;;;;;;;;143756;977;46010;-58
2022/06/01 14:34:25;;;;;;;;;;;;;;;;;;143752;981;46021;-58
2022/06/01 14:36:51;;;;;;;;;;;;;;;;;;143750;977;46020;-58
2022/06/01 14:39:19;;;;;;;;;;;;;;;;;;143753;982;46020;-58
2022/06/01 14:41:46;;;;;;;;;;;;;;;;;;143753;981;46020;-58
2022/06/01 14:44:15;;;;;;;;;;;;;;;;;;143753;981;46020;-58
2022/06/01 14:46:42;;;;;;;;;;;;;;;;;;143750;978;46020;-58
2022/06/01 14:49:08;;;;;;;;;;;;;;;;;;143752;981;46021;-58
2022/06/01 14:51:35;;;;;;;;;;;;;;;;;;143754;973;46020;-58
2022/06/01 14:54:03;;;;;;;;;;;;;;;;;;143753;976;46020;-58
2022/06/01 14:56:30;;;;;;;;;;;;;;;;;;143749;965;46020;-58
2022/06/01 14:59:00;;;;;;;;;;;;;;;;;;143753;979;46020;-57
2022/06/01 15:01:37;;;;;;;;;;;;;;;;;;143755;979;46010;-58
2022/06/01 15:04:03;;;;;;;;;;;;;;;;;;143750;981;47022;-58
2022/06/01 15:06:29;;;;;;;;;;;;;;;;;;143750;976;46020;-58
2022/06/01 15:08:56;;;;;;;;;;;;;;;;;;143751;982;46020;-57
2022/06/01 15:11:22;;;;;;;;;;;;;;;;;;143752;956;46010;-58
2022/06/01 15:13:49;;;;;;;;;;;;;;;;;;143751;982;46020;-58
2022/06/01 15:16:16;;;;;;;;;;;;;;;;;;143751;978;46020;-58
2022/06/01 15:18:44;;;;;;;;;;;;;;;;;;143754;981;46021;-58
2022/06/01 15:21:11;;;;;;;;;;;;;;;;;;143753;978;46010;-58
2022/06/01 15:23:38;;;;;;;;;;;;;;;;;;143753;977;46020;-58
2022/06/01 15:26:04;;;;;;;;;;;;;;;;;;143750;978;46010;-58
2022/06/01 15:28:33;;;;;;;;;;;;;;;;;;143752;981;46020;-58
2022/06/01 15:41:55;;;;;;;;;;;;;;;;;;143755;980;46011;-58
2022/06/01 15:44:24;;;;;;;;;;;;;;;;;;143753;968;46034;-57
2022/06/01 15:46:51;;;;;;;;;;;;;;;;;;143750;978;46020;-58
2022/06/01 15:49:17;;;;;;;;;;;;;;;;;;143753;981;46020;-58
2022/06/01 15:51:47;;;;;;;;;;;;;;;;;;143753;982;46010;-58
2022/06/01 15:54:13;;;;;;;;;;;;;;;;;;143753;982;46022;-57
2022/06/01 15:56:39;;;;;;;;;;;;;;;;;;143750;978;46021;-58
2022/06/01 15:59:06;;;;;;;;;;;;;;;;;;143750;976;46020;-57
2022/06/01 16:01:32;;;;;;;;;;;;;;;;;;143749;979;46020;-57
2022/06/01 16:03:59;;;;;;;;;;;;;;;;;;143753;978;46020;-57
2022/06/01 16:06:25;;;;;;;;;;;;;;;;;;143749;978;46020;-57
2022/06/01 16:08:51;;;;;;;;;;;;;;;;;;143752;982;46020;-57
2022/06/01 16:11:21;;;;;;;;;;;;;;;;;;143753;981;46010;-58
2022/06/01 16:13:47;;;;;;;;;;;;;;;;;;143747;982;46022;-57
2022/06/01 16:16:14;;;;;;;;;;;;;;;;;;143741;978;46020;-57
2022/06/01 16:18:41;;;;;;;;;;;;;;;;;;143742;977;46021;-57
2022/06/01 16:21:07;;;;;;;;;;;;;;;;;;143744;968;46034;-58
2022/06/01 16:23:34;;;;;;;;;;;;;;;;;;143738;955;46020;-57
2022/06/01 16:26:00;;;;;;;;;;;;;;;;;;143743;976;46021;-57
2022/06/01 16:28:27;;;;;;;;;;;;;;;;;;143741;982;46020;-58
2022/06/01 16:30:53;;;;;;;;;;;;;;;;;;143743;976;46012;-58
2022/06/01 16:33:28;;;;;;;;;;;;;;;;;;143744;954;46022;-57
2022/06/01 16:35:55;;;;;;;;;;;;;;;;;;143741;977;46020;-57
2022/06/01 16:38:21;;;;;;;;;;;;;;;;;;143741;981;46020;-57
2022/06/01 16:40:49;;;;;;;;;;;;;;;;;;143744;980;46021;-58
2022/06/01 16:43:15;;;;;;;;;;;;;;;;;;143742;978;46020;-57
2022/06/01 16:45:41;;;;;;;;;;;;;;;;;;143741;978;46020;-57
2022/06/01 16:48:08;;;;;;;;;;;;;;;;;;143739;981;46012;-57
2022/06/01 16:50:34;;;;;;;;;;;;;;;;;;143744;981;46012;-57
2022/06/01 16:53:01;;;;;;;;;;;;;;;;;;143742;955;46051;-58
2022/06/01 16:55:28;;;;;;;;;;;;;;;;;;143743;978;46013;-58
2022/06/01 16:57:55;;;;;;;;;;;;;;;;;;143742;981;46923;-57
2022/06/01 17:00:21;;;;;;;;;;;;;;;;;;143745;970;46012;-57
2022/06/01 17:02:47;;;;;;;;;;;;;;;;;;143742;980;47021;-58
2022/06/01 17:05:14;;;;;;;;;;;;;;;;;;143741;977;46020;-57
2022/06/01 17:07:41;;;;;;;;;;;;;;;;;;143745;959;46036;-57
2022/06/01 17:10:09;;;;;;;;;;;;;;;;;;143747;981;46010;-57
2022/06/01 17:12:35;;;;;;;;;;;;;;;;;;143738;976;46020;-57
2022/06/01 17:15:02;;;;;;;;;;;;;;;;;;143742;978;46020;-57
2022/06/01 17:17:36;;;;;;;;;;;;;;;;;;143742;979;46021;-57
2022/06/01 17:20:04;;;;;;;;;;;;;;;;;;143745;981;46010;-57
2022/06/01 17:22:30;;;;;;;;;;;;;;;;;;143743;975;46020;-57
2022/06/01 17:24:56;;;;;;;;;;;;;;;;;;143744;978;46010;-57
2022/06/01 17:27:22;;;;;;;;;;;;;;;;;;143745;981;46020;-57
2022/06/01 17:29:48;;;;;;;;;;;;;;;;;;143743;982;46010;-57
2022/06/01 17:32:16;;;;;;;;;;;;;;;;;;143744;981;46021;-58
2022/06/01 17:34:43;;;;;;;;;;;;;;;;;;143742;977;46020;-57
2022/06/01 17:37:09;;;;;;;;;;;;;;;;;;143739;981;46020;-57
2022/06/01 17:39:36;;;;;;;;;;;;;;;;;;143746;978;46010;-57
2022/06/01 17:42:02;;;;;;;;;;;;;;;;;;143745;952;46023;-57
2022/06/01 17:44:29;;;;;;;;;;;;;;;;;;143741;976;46020;-57
2022/06/01 17:46:55;;;;;;;;;;;;;;;;;;143742;981;46021;-57
2022/06/01 17:49:22;;;;;;;;;;;;;;;;;;143742;975;46021;-57